Change the Weather History Date:

Thursday, April 11, 2013

  Actual Average Record
Temperature  
Mean Temperature 66 °F -  
Max Temperature 77 °F 66 °F 77 °F (2013)
Min Temperature 55 °F 38 °F 53 °F (2014)
Cooling Degree Days 1    
Growing Degree Days 16 (Base 50)    
Moisture  
Dew Point 56 °F    
Average Humidity 71    
Maximum Humidity 100    
Minimum Humidity 50    
Precipitation  
Precipitation 0.64 in - - ()
Sea Level Pressure  
Sea Level Pressure 29.76 in    
Wind  
Wind Speed 7 mph (SW)    
Max Wind Speed 24 mph    
Max Gust Speed 46 mph    
Visibility 9 miles    
Events Rain    
Averages and records for this station are not official NWS values.
T = Trace of Precipitation, MM = Missing Value Source: NWS Daily Summary

Daily Weather History Graph

Daily Weather History Graph

Search for Another Location

Airport or City:

Trip Planner

Search our weather history database for the weather conditions in past years. The results will help you decide how hot, cold, wet, or windy it might be!

Date:

Astronomy

Apr. 11, 2013 Rise Set
Actual Time 7:05 AM EDT 8:08 PM EDT
Civil Twilight 6:38 AM EDT 8:35 PM EDT
Nautical Twilight 6:06 AM EDT 9:07 PM EDT
Astronomical Twilight 5:33 AM EDT 9:41 PM EDT
Moon 7:38 AM EDT (4/11) 9:40 PM EDT (4/11)
Length of Visible Light 13h 56m
Length of Day
13h 02m
New Moon, 2% of the Moon is Illuminated
Apr 11
New Moon
Apr 18
First Quarter
Apr 25
Full
May 2
Last Quarter
May 9
New

Hourly Weather History & Observations

Time (EDT) Temp. Dew Point Humidity Pressure Visibility Wind Dir Wind Speed Gust Speed Precip Events Conditions
12:15 AM 66.2 °F 53.6 °F 64% 29.85 in 10.0 mi SSW 5.8 mph - N/A   Clear
12:35 AM 66.2 °F 53.6 °F 64% 29.86 in 10.0 mi SSW 6.9 mph - N/A   Clear
12:55 AM 64.4 °F 53.6 °F 68% 29.86 in 10.0 mi SW 5.8 mph - N/A   Clear
1:15 AM 66.2 °F 53.6 °F 64% 29.86 in 10.0 mi SW 5.8 mph - N/A   Clear
1:35 AM 68.0 °F 53.6 °F 60% 29.86 in 10.0 mi SW 4.6 mph - N/A   Clear
1:55 AM 66.2 °F 53.6 °F 64% 29.86 in 10.0 mi SW 5.8 mph - N/A   Clear
2:15 AM 64.4 °F 53.6 °F 68% 29.85 in 10.0 mi SW 5.8 mph - N/A   Clear
2:35 AM 62.6 °F 53.6 °F 72% 29.85 in 10.0 mi SW 5.8 mph - N/A   Clear
2:55 AM 66.2 °F 53.6 °F 64% 29.83 in 10.0 mi SSW 5.8 mph - N/A   Clear
3:15 AM 66.2 °F 53.6 °F 64% 29.83 in 10.0 mi SW 5.8 mph - N/A   Clear
3:35 AM 66.2 °F 53.6 °F 64% 29.83 in 10.0 mi SW 5.8 mph - N/A   Mostly Cloudy
3:55 AM 66.2 °F 53.6 °F 64% 29.83 in 10.0 mi SW 6.9 mph - N/A   Mostly Cloudy
4:15 AM 68.0 °F 53.6 °F 60% 29.83 in 10.0 mi SW 6.9 mph - N/A   Scattered Clouds
4:35 AM 66.2 °F 53.6 °F 64% 29.82 in 10.0 mi SSW 8.1 mph - N/A   Scattered Clouds
4:55 AM 68.0 °F 53.6 °F 60% 29.82 in 10.0 mi SSW 10.4 mph - N/A   Clear
5:15 AM 68.0 °F 53.6 °F 60% 29.82 in 10.0 mi SSW 10.4 mph - N/A   Clear
5:35 AM 66.2 °F 53.6 °F 64% 29.82 in 10.0 mi SSW 8.1 mph - N/A   Clear
5:55 AM 66.2 °F 53.6 °F 64% 29.82 in 10.0 mi SW 9.2 mph - N/A   Clear
6:15 AM 66.2 °F 53.6 °F 64% 29.82 in 10.0 mi SW 9.2 mph - N/A   Clear
6:35 AM 66.2 °F 53.6 °F 64% 29.82 in 10.0 mi SW 6.9 mph - N/A   Clear
6:55 AM 68.0 °F 53.6 °F 60% 29.82 in 10.0 mi SW 9.2 mph - N/A   Clear
7:15 AM 68.0 °F 53.6 °F 60% 29.83 in 10.0 mi SW 9.2 mph - N/A   Clear
7:35 AM 68.0 °F 55.4 °F 64% 29.83 in 10.0 mi SW 9.2 mph - N/A   Scattered Clouds
7:55 AM 68.0 °F 55.4 °F 64% 29.83 in 10.0 mi SW 8.1 mph - N/A   Mostly Cloudy
8:15 AM 68.0 °F 55.4 °F 64% 29.83 in 10.0 mi SW 8.1 mph - N/A   Scattered Clouds
8:35 AM 68.0 °F 55.4 °F 64% 29.83 in 10.0 mi SW 9.2 mph - N/A   Scattered Clouds
8:55 AM 69.8 °F 55.4 °F 60% 29.83 in 10.0 mi SW 9.2 mph - N/A   Mostly Cloudy
9:15 AM 69.8 °F 55.4 °F 60% 29.84 in 10.0 mi SW 9.2 mph - N/A   Mostly Cloudy
9:35 AM 69.8 °F 55.4 °F 60% 29.83 in 10.0 mi SW 10.4 mph 17.3 mph N/A   Overcast
9:55 AM 69.8 °F 57.2 °F 64% 29.84 in 10.0 mi WSW 11.5 mph 18.4 mph N/A   Overcast
10:15 AM 71.6 °F 57.2 °F 60% 29.83 in 10.0 mi WSW 10.4 mph 16.1 mph N/A   Overcast
10:35 AM 69.8 °F 57.2 °F 64% 29.83 in 10.0 mi WSW 11.5 mph 17.3 mph N/A   Overcast
10:55 AM 71.6 °F 57.2 °F 60% 29.83 in 10.0 mi WSW 11.5 mph 16.1 mph N/A   Overcast
11:15 AM 71.6 °F 57.2 °F 60% 29.83 in 10.0 mi WSW 12.7 mph 23.0 mph N/A   Scattered Clouds
11:35 AM 71.6 °F 57.2 °F 60% 29.83 in 10.0 mi West 13.8 mph 25.3 mph N/A   Mostly Cloudy
11:55 AM 71.6 °F 57.2 °F 60% 29.83 in 10.0 mi WSW 13.8 mph 23.0 mph N/A   Overcast
12:15 PM 73.4 °F 59.0 °F 61% 29.83 in 10.0 mi WSW 13.8 mph 19.6 mph N/A   Mostly Cloudy
12:35 PM 73.4 °F 59.0 °F 61% 29.82 in 10.0 mi WSW 12.7 mph 20.7 mph N/A   Mostly Cloudy
1:15 PM 73.4 °F 59.0 °F 61% 29.80 in 10.0 mi WSW 8.1 mph 16.1 mph N/A   Scattered Clouds
1:35 PM 75.2 °F 59.0 °F 57% 29.78 in 10.0 mi West 9.2 mph 16.1 mph N/A   Mostly Cloudy
1:55 PM 75.2 °F 59.0 °F 57% 29.77 in 10.0 mi West 12.7 mph - N/A   Overcast
2:15 PM 75.2 °F 59.0 °F 57% 29.75 in 10.0 mi WSW 6.9 mph - N/A   Scattered Clouds
2:35 PM 77.0 °F 59.0 °F 54% 29.73 in 10.0 mi West 4.6 mph - N/A   Clear
2:55 PM 77.0 °F 57.2 °F 50% 29.72 in 10.0 mi West 5.8 mph - N/A   Clear
3:15 PM 75.2 °F 57.2 °F 53% 29.71 in 10.0 mi WNW 4.6 mph - N/A   Mostly Cloudy
3:35 PM 73.4 °F 59.0 °F 61% 29.69 in 10.0 mi NNW 4.6 mph - N/A   Overcast
3:55 PM 71.6 °F 59.0 °F 64% 29.68 in 7.0 mi NW 4.6 mph - N/A Rain Rain
4:15 PM 71.6 °F 60.8 °F 69% 29.67 in 10.0 mi Calm Calm - N/A   Overcast
4:35 PM 71.6 °F 60.8 °F 69% 29.67 in 4.0 mi Calm Calm - 0.01 in Rain Rain
4:55 PM 71.6 °F 60.8 °F 69% 29.65 in 10.0 mi Calm Calm - 0.01 in   Mostly Cloudy
5:15 PM 71.6 °F 62.6 °F 73% 29.63 in 10.0 mi NNE 4.6 mph - N/A   Scattered Clouds
5:35 PM 71.6 °F 62.6 °F 73% 29.63 in 10.0 mi East 4.6 mph - N/A   Scattered Clouds
5:55 PM 71.6 °F 62.6 °F 73% 29.60 in 10.0 mi East 4.6 mph - N/A   Scattered Clouds
6:15 PM 71.6 °F 62.6 °F 73% 29.59 in 10.0 mi East 4.6 mph - N/A   Mostly Cloudy
6:35 PM 71.6 °F 60.8 °F 69% 29.57 in 10.0 mi East 3.5 mph - N/A   Overcast
6:55 PM 64.4 °F 60.8 °F 88% 29.66 in 3.0 mi West 24.2 mph 46.0 mph 0.04 in Rain Heavy Rain
7:15 PM 59.0 °F 57.2 °F 94% 29.70 in 5.0 mi NW 17.3 mph 33.4 mph 0.13 in Rain Light Rain
7:35 PM 59.0 °F 57.2 °F 94% 29.71 in 7.0 mi NW 13.8 mph 24.2 mph 0.18 in Rain Rain
7:55 PM 57.2 °F 55.4 °F 94% 29.70 in 5.0 mi NNW 10.4 mph 20.7 mph 0.28 in Rain Rain
8:15 PM 57.2 °F 55.4 °F 94% 29.69 in 7.0 mi NW 8.1 mph 16.1 mph 0.04 in Rain Light Rain
8:35 PM 57.2 °F 55.4 °F 94% 29.70 in 7.0 mi NW 4.6 mph - 0.06 in Rain Heavy Rain
8:55 PM 57.2 °F 55.4 °F 94% 29.70 in 7.0 mi NW 3.5 mph - 0.10 in Rain Rain
9:15 PM 57.2 °F 57.2 °F 100% 29.72 in 7.0 mi SW 4.6 mph - 0.03 in Rain Rain
9:35 PM 57.2 °F 57.2 °F 100% 29.68 in 7.0 mi SE 5.8 mph - 0.07 in Rain Rain
9:55 PM 57.2 °F 57.2 °F 100% 29.68 in 10.0 mi SE 6.9 mph - 0.11 in Rain Light Rain
10:15 PM 57.2 °F 57.2 °F 100% 29.66 in 7.0 mi SE 11.5 mph 17.3 mph 0.04 in Rain Rain
10:35 PM 55.4 °F 55.4 °F 100% 29.62 in 7.0 mi SE 15.0 mph 26.5 mph 0.10 in Rain Rain
10:55 PM 57.2 °F 55.4 °F 94% 29.63 in 10.0 mi SE 4.6 mph - 0.10 in   Scattered Clouds
11:15 PM 55.4 °F 55.4 °F 100% 29.62 in 10.0 mi Calm Calm - N/A   Scattered Clouds
11:35 PM 55.4 °F 55.4 °F 100% 29.61 in 10.0 mi SE 3.5 mph - N/A   Mostly Cloudy
11:55 PM 57.2 °F 55.4 °F 94% 29.59 in 10.0 mi SSE 8.1 mph - N/A   Mostly Cloudy